Terminal Aerodrome Forecast
Issued by NWS

Home | Current Version | Previous Version | Text Only | Print | Product List | Glossary On
Versions: 1 2 3 4 5 6 7 8 9 10 11 12 13 14 15 16 17 18 19 20 21 22 23
000
FTUS43 KPAH 170500
TAFCGI
TAF
KCGI 170520Z 1706/1806 04004KT 5SM BR SKC
      TEMPO 1707/1711 3SM BR MIFG
     FM171300 10004KT P6SM VCSH BKN030 OVC060
     FM172000 14004KT P6SM -SHRA BKN045=

USA.gov is the U.S. government's official web portal to all federal, state and local government web resources and services.